Time;durP1;ratioP1;P1;durP2;ratioP2;P2;SDS_P1;SDS_P2;PMS_P1;PMS_P2;Temp;Humidity;BMP_temperature;BMP_pressure;BME280_temperature;BME280_humidity;BME280_pressure;Samples;Min_cycle;Max_cycle;Signal;HPM_P1;HPM_P2
2022/09/02 00:01:23;;;;;;;4.03;0.70;;;;;;;;;;5049884;28;20207;-64
2022/09/02 00:03:49;;;;;;;1.85;0.80;;;;;;;;;;5050388;28;20265;-64
2022/09/02 00:06:14;;;;;;;3.63;1.00;;;;;;;;;;5049195;28;20690;-64
2022/09/02 00:08:40;;;;;;;1.67;0.68;;;;;;;;;;5050327;28;20250;-64
2022/09/02 00:11:05;;;;;;;2.47;0.80;;;;;;;;;;5045306;28;20207;-64
2022/09/02 00:13:31;;;;;;;3.08;0.80;;;;;;;;;;5016014;28;20215;-63
2022/09/02 00:15:56;;;;;;;1.38;0.57;;;;;;;;;;5027025;28;20587;-64
2022/09/02 00:18:23;;;;;;;4.82;0.73;;;;;;;;;;5018834;28;20207;-63
2022/09/02 00:20:49;;;;;;;2.70;0.60;;;;;;;;;;5030784;28;20754;-64
2022/09/02 00:23:15;;;;;;;1.30;0.70;;;;;;;;;;5040492;28;20227;-63
2022/09/02 00:25:40;;;;;;;4.45;0.88;;;;;;;;;;5039698;28;20219;-63
2022/09/02 00:28:06;;;;;;;5.18;0.80;;;;;;;;;;5042258;28;20728;-63
2022/09/02 00:30:32;;;;;;;1.25;0.60;;;;;;;;;;5042609;28;20377;-64
2022/09/02 00:32:58;;;;;;;4.30;0.70;;;;;;;;;;5040714;28;20370;-63
2022/09/02 00:35:23;;;;;;;1.77;0.63;;;;;;;;;;5024292;28;20204;-64
2022/09/02 00:37:48;;;;;;;3.75;0.90;;;;;;;;;;5009780;28;20207;-64
2022/09/02 00:40:14;;;;;;;3.75;0.65;;;;;;;;;;5010990;28;20262;-63
2022/09/02 00:42:39;;;;;;;2.97;0.68;;;;;;;;;;5016196;28;20241;-63
2022/09/02 00:45:05;;;;;;;2.95;0.60;;;;;;;;;;5015396;28;20448;-63
2022/09/02 00:47:31;;;;;;;3.75;0.80;;;;;;;;;;5035637;28;20280;-63
2022/09/02 00:49:57;;;;;;;2.95;0.60;;;;;;;;;;5036079;28;20207;-63
2022/09/02 00:52:23;;;;;;;3.55;0.77;;;;;;;;;;5022763;28;20250;-63
2022/09/02 00:54:51;;;;;;;3.00;0.80;;;;;;;;;;5034755;28;20207;-63
2022/09/02 00:57:18;;;;;;;4.18;0.68;;;;;;;;;;5029313;28;20464;-63
2022/09/02 01:00:07;;;;;;;3.63;0.60;;;;;;;;;;5027493;28;20277;-63
2022/09/02 01:02:33;;;;;;;5.90;0.70;;;;;;;;;;5029654;28;20203;-63
2022/09/02 01:04:58;;;;;;;2.25;0.70;;;;;;;;;;5034515;28;20558;-63
2022/09/02 01:07:24;;;;;;;2.08;0.65;;;;;;;;;;5034570;28;20368;-63
2022/09/02 01:09:50;;;;;;;3.60;0.90;;;;;;;;;;5033206;28;20219;-63
2022/09/02 01:12:15;;;;;;;2.28;0.70;;;;;;;;;;5033540;28;20735;-63
2022/09/02 01:14:41;;;;;;;6.45;0.77;;;;;;;;;;5019192;28;20662;-63
2022/09/02 01:17:07;;;;;;;2.20;0.65;;;;;;;;;;5026712;28;20227;-63
2022/09/02 01:19:33;;;;;;;5.05;1.17;;;;;;;;;;5012923;28;20957;-64
2022/09/02 01:21:59;;;;;;;3.30;0.70;;;;;;;;;;5026361;28;20432;-64
2022/09/02 01:24:25;;;;;;;1.98;0.65;;;;;;;;;;5028148;28;20377;-64
2022/09/02 01:26:50;;;;;;;3.60;0.73;;;;;;;;;;5034366;28;20537;-64
2022/09/02 01:29:16;;;;;;;4.07;0.70;;;;;;;;;;5033566;28;20584;-64
2022/09/02 01:31:41;;;;;;;1.02;0.50;;;;;;;;;;5034902;28;20896;-64
2022/09/02 01:34:07;;;;;;;3.15;0.80;;;;;;;;;;5034100;28;20408;-64
2022/09/02 01:36:33;;;;;;;6.47;1.25;;;;;;;;;;5030621;28;20238;-64
2022/09/02 01:38:58;;;;;;;1.90;0.70;;;;;;;;;;5014710;28;20220;-64
2022/09/02 01:41:23;;;;;;;1.73;0.82;;;;;;;;;;5011600;28;20346;-64
2022/09/02 01:43:49;;;;;;;5.03;0.52;;;;;;;;;;5008284;28;20715;-64
2022/09/02 01:46:14;;;;;;;2.95;1.02;;;;;;;;;;5008191;28;20706;-64
2022/09/02 01:48:39;;;;;;;2.97;0.70;;;;;;;;;;5012035;28;20274;-64
2022/09/02 01:51:05;;;;;;;3.53;0.60;;;;;;;;;;5031052;28;20214;-64
2022/09/02 01:53:30;;;;;;;6.57;0.73;;;;;;;;;;5014765;28;20259;-64
2022/09/02 01:55:56;;;;;;;0.70;0.50;;;;;;;;;;5014526;28;20541;-64
2022/09/02 01:58:21;;;;;;;2.15;0.50;;;;;;;;;;5013362;28;20239;-64
2022/09/02 02:00:47;;;;;;;2.05;0.70;;;;;;;;;;5015520;28;20496;-64
2022/09/02 02:03:12;;;;;;;4.43;0.73;;;;;;;;;;5012683;28;20549;-64
2022/09/02 02:05:37;;;;;;;2.90;0.80;;;;;;;;;;5007735;28;20286;-64
2022/09/02 02:08:03;;;;;;;3.35;0.80;;;;;;;;;;5008022;28;20289;-64
2022/09/02 02:10:28;;;;;;;4.10;0.95;;;;;;;;;;5007874;28;20235;-64
2022/09/02 02:12:53;;;;;;;2.58;0.80;;;;;;;;;;5014475;28;20426;-64
2022/09/02 02:15:19;;;;;;;3.08;0.65;;;;;;;;;;5013576;28;20208;-64
2022/09/02 02:17:45;;;;;;;3.45;1.00;;;;;;;;;;5014917;28;20426;-64
2022/09/02 02:20:10;;;;;;;1.40;0.60;;;;;;;;;;5013130;28;20220;-64
2022/09/02 02:22:36;;;;;;;2.33;0.60;;;;;;;;;;5014414;28;20254;-64
2022/09/02 02:25:01;;;;;;;1.65;0.70;;;;;;;;;;5027822;28;20834;-64
2022/09/02 02:27:26;;;;;;;3.47;0.70;;;;;;;;;;5026404;28;20426;-64
2022/09/02 02:29:52;;;;;;;5.95;0.98;;;;;;;;;;5027748;28;20218;-64
2022/09/02 02:32:18;;;;;;;3.20;0.70;;;;;;;;;;5026048;28;20211;-64
2022/09/02 02:34:43;;;;;;;2.90;0.68;;;;;;;;;;5034722;28;20936;-64
2022/09/02 02:37:11;;;;;;;2.80;0.68;;;;;;;;;;5034335;28;20200;-64
2022/09/02 02:39:36;;;;;;;1.88;0.60;;;;;;;;;;5021886;28;20306;-64
2022/09/02 02:42:01;;;;;;;1.23;0.75;;;;;;;;;;5022342;28;20315;-64
2022/09/02 02:44:28;;;;;;;1.13;0.60;;;;;;;;;;5022157;28;20211;-66
2022/09/02 02:46:54;;;;;;;2.65;0.80;;;;;;;;;;5021891;28;20243;-64
2022/09/02 02:49:19;;;;;;;1.77;0.80;;;;;;;;;;5034744;28;20223;-64
2022/09/02 02:51:44;;;;;;;1.83;0.70;;;;;;;;;;5007777;28;20208;-64
2022/09/02 02:54:11;;;;;;;1.77;0.70;;;;;;;;;;5006175;28;20452;-64
2022/09/02 02:56:36;;;;;;;2.45;0.80;;;;;;;;;;5011451;28;20254;-64
2022/09/02 02:59:02;;;;;;;4.00;0.80;;;;;;;;;;5032400;28;20207;-64
2022/09/02 03:01:28;;;;;;;4.30;0.85;;;;;;;;;;5032089;28;20215;-64
2022/09/02 03:03:54;;;;;;;2.22;0.70;;;;;;;;;;5033820;28;20598;-64
2022/09/02 03:06:19;;;;;;;2.03;0.80;;;;;;;;;;5031073;28;20290;-64
2022/09/02 03:08:47;;;;;;;3.10;0.70;;;;;;;;;;5032220;28;20785;-64
2022/09/02 03:11:13;;;;;;;2.15;0.55;;;;;;;;;;5030291;28;20223;-64
2022/09/02 03:13:38;;;;;;;3.03;0.80;;;;;;;;;;5019018;28;20211;-64
2022/09/02 03:16:05;;;;;;;1.67;0.50;;;;;;;;;;5005991;28;20211;-64
2022/09/02 03:18:30;;;;;;;3.00;0.80;;;;;;;;;;5010170;28;20215;-64
2022/09/02 03:20:55;;;;;;;3.80;0.70;;;;;;;;;;5026307;28;20527;-64
2022/09/02 03:23:21;;;;;;;2.72;0.70;;;;;;;;;;5032165;28;20219;-64
2022/09/02 03:25:46;;;;;;;1.45;0.75;;;;;;;;;;5032438;28;20211;-64
2022/09/02 03:28:11;;;;;;;3.63;0.73;;;;;;;;;;5031891;28;20218;-64
2022/09/02 03:30:37;;;;;;;1.70;0.60;;;;;;;;;;5032074;28;21060;-64
2022/09/02 03:33:04;;;;;;;1.60;0.90;;;;;;;;;;5029968;28;20219;-64
2022/09/02 03:35:29;;;;;;;3.10;0.70;;;;;;;;;;5025881;28;20591;-64
2022/09/02 03:37:54;;;;;;;1.90;0.70;;;;;;;;;;5012691;28;20643;-64
2022/09/02 03:40:21;;;;;;;1.50;0.70;;;;;;;;;;5006613;28;20776;-65
2022/09/02 03:42:47;;;;;;;2.50;0.80;;;;;;;;;;5012110;28;20367;-65
2022/09/02 03:45:14;;;;;;;3.60;0.65;;;;;;;;;;5012310;28;20229;-65
2022/09/02 03:47:44;;;;;;;3.50;0.70;;;;;;;;;;5032365;28;20314;-65
2022/09/02 03:50:09;;;;;;;4.55;0.80;;;;;;;;;;5030444;28;20310;-65
2022/09/02 03:52:35;;;;;;;2.28;0.82;;;;;;;;;;5019177;28;20933;-65
2022/09/02 03:55:01;;;;;;;2.25;0.70;;;;;;;;;;5031835;28;20690;-65
2022/09/02 03:57:27;;;;;;;5.97;1.23;;;;;;;;;;5026650;28;20253;-65
2022/09/02 03:59:52;;;;;;;1.50;0.55;;;;;;;;;;5026293;28;20683;-65
2022/09/02 04:02:17;;;;;;;4.25;0.73;;;;;;;;;;5024392;28;20696;-65
2022/09/02 04:04:43;;;;;;;3.20;0.65;;;;;;;;;;5030611;28;20218;-65
2022/09/02 04:07:08;;;;;;;3.05;0.60;;;;;;;;;;5031349;28;20223;-65
2022/09/02 04:09:33;;;;;;;6.43;0.90;;;;;;;;;;5032084;28;20314;-65
2022/09/02 04:11:58;;;;;;;1.95;0.70;;;;;;;;;;5031840;28;20764;-65
2022/09/02 04:14:24;;;;;;;5.85;0.88;;;;;;;;;;5017772;28;20216;-65
2022/09/02 04:16:49;;;;;;;2.50;0.80;;;;;;;;;;5025839;28;20259;-65
2022/09/02 04:19:15;;;;;;;3.55;0.93;;;;;;;;;;5008817;28;20689;-65
2022/09/02 04:21:40;;;;;;;3.75;0.75;;;;;;;;;;5024894;28;20840;-63
2022/09/02 04:24:06;;;;;;;3.97;0.80;;;;;;;;;;5024259;28;20321;-65
2022/09/02 04:26:32;;;;;;;4.32;0.90;;;;;;;;;;5026148;28;20497;-64
2022/09/02 04:28:57;;;;;;;2.88;0.90;;;;;;;;;;5031051;28;20404;-64
2022/09/02 04:31:24;;;;;;;3.05;0.90;;;;;;;;;;5026051;28;20231;-68
2022/09/02 04:33:49;;;;;;;3.10;0.95;;;;;;;;;;5008993;28;21022;-62
2022/09/02 04:36:15;;;;;;;4.00;1.00;;;;;;;;;;5011912;28;20250;-62
2022/09/02 04:38:40;;;;;;;4.38;1.02;;;;;;;;;;5013099;28;20215;-63
2022/09/02 04:41:06;;;;;;;3.72;0.80;;;;;;;;;;5010823;28;20212;-62
2022/09/02 04:43:32;;;;;;;4.15;0.77;;;;;;;;;;5008287;28;20216;-63
2022/09/02 04:45:57;;;;;;;7.00;1.00;;;;;;;;;;5005339;28;20276;-64
2022/09/02 04:48:22;;;;;;;2.22;0.63;;;;;;;;;;5006528;28;20637;-63
2022/09/02 04:50:48;;;;;;;4.53;0.70;;;;;;;;;;5014880;28;20556;-62
2022/09/02 04:53:15;;;;;;;3.55;0.80;;;;;;;;;;5018448;28;20425;-63
2022/09/02 04:55:40;;;;;;;2.33;0.70;;;;;;;;;;5021134;28;20222;-62
2022/09/02 04:58:06;;;;;;;2.70;0.90;;;;;;;;;;5022015;28;20583;-62
2022/09/02 05:00:31;;;;;;;1.85;0.90;;;;;;;;;;5044011;28;20192;-62
2022/09/02 05:02:57;;;;;;;3.78;0.85;;;;;;;;;;5049382;28;20697;-61
2022/09/02 05:05:22;;;;;;;5.60;1.20;;;;;;;;;;5048842;28;20225;-61
2022/09/02 05:07:47;;;;;;;3.00;0.90;;;;;;;;;;5048545;28;20556;-62
2022/09/02 05:10:13;;;;;;;4.53;0.80;;;;;;;;;;5048742;28;20203;-61
2022/09/02 05:12:39;;;;;;;2.80;0.90;;;;;;;;;;5050160;28;20207;-61
2022/09/02 05:15:05;;;;;;;1.65;0.80;;;;;;;;;;5052493;28;20207;-61
2022/09/02 05:17:31;;;;;;;3.45;1.08;;;;;;;;;;5053212;28;20219;-61
2022/09/02 05:19:57;;;;;;;1.58;0.80;;;;;;;;;;5046769;28;20762;-63
2022/09/02 05:22:24;;;;;;;5.30;0.90;;;;;;;;;;5032362;28;20347;-62
2022/09/02 05:24:49;;;;;;;2.97;0.90;;;;;;;;;;5033449;28;20265;-63
2022/09/02 05:27:15;;;;;;;1.95;0.90;;;;;;;;;;5032771;28;20298;-68
2022/09/02 05:29:40;;;;;;;3.70;1.00;;;;;;;;;;5032499;28;20252;-65
2022/09/02 05:32:07;;;;;;;2.25;0.80;;;;;;;;;;5032690;28;20216;-66
2022/09/02 05:34:32;;;;;;;2.65;0.90;;;;;;;;;;5031951;28;20735;-67
2022/09/02 05:36:58;;;;;;;2.40;1.02;;;;;;;;;;5038521;28;20290;-67
2022/09/02 05:39:23;;;;;;;2.72;1.05;;;;;;;;;;5052228;28;20207;-65
2022/09/02 05:41:48;;;;;;;3.78;0.68;;;;;;;;;;5066025;28;20257;-70
2022/09/02 05:44:14;;;;;;;4.28;0.90;;;;;;;;;;5072005;28;20256;-69
2022/09/02 05:46:39;;;;;;;4.25;0.73;;;;;;;;;;5071261;28;20611;-70
2022/09/02 05:49:05;;;;;;;3.30;0.82;;;;;;;;;;5072173;28;20222;-66
2022/09/02 05:51:31;;;;;;;6.40;1.00;;;;;;;;;;5066514;28;20674;-68
2022/09/02 05:53:57;;;;;;;4.72;0.90;;;;;;;;;;5052541;28;20722;-65
2022/09/02 05:56:22;;;;;;;6.15;1.27;;;;;;;;;;5050253;28;20214;-67
2022/09/02 05:58:48;;;;;;;3.05;1.10;;;;;;;;;;5056142;28;20319;-68
2022/09/02 06:01:16;;;;;;;3.03;0.93;;;;;;;;;;5057465;28;20276;-68
2022/09/02 06:03:42;;;;;;;3.40;0.90;;;;;;;;;;5051976;28;20207;-69
2022/09/02 06:06:07;;;;;;;2.47;1.00;;;;;;;;;;5052250;28;20249;-66
2022/09/02 06:08:33;;;;;;;1.80;0.80;;;;;;;;;;5052422;28;20228;-67
2022/09/02 06:11:04;;;;;;;8.48;1.23;;;;;;;;;;5051703;28;20218;-64
2022/09/02 06:13:30;;;;;;;4.60;1.00;;;;;;;;;;5059154;28;20214;-69
2022/09/02 06:15:56;;;;;;;4.85;1.23;;;;;;;;;;5070886;28;20207;-67
2022/09/02 06:18:21;;;;;;;5.63;1.15;;;;;;;;;;5052785;28;20744;-68
2022/09/02 06:20:47;;;;;;;3.13;0.90;;;;;;;;;;5052293;28;20242;-68
2022/09/02 06:23:12;;;;;;;5.47;1.25;;;;;;;;;;5051958;28;20242;-68
2022/09/02 06:25:38;;;;;;;3.70;1.20;;;;;;;;;;5049222;28;20578;-68
2022/09/02 06:28:03;;;;;;;5.78;1.30;;;;;;;;;;5051508;28;20308;-67
2022/09/02 06:30:29;;;;;;;4.28;1.00;;;;;;;;;;5050760;28;20207;-67
2022/09/02 06:32:54;;;;;;;3.90;0.90;;;;;;;;;;5051332;28;20605;-67
2022/09/02 06:35:20;;;;;;;5.80;1.08;;;;;;;;;;5051552;28;20215;-68
2022/09/02 06:37:45;;;;;;;9.00;1.92;;;;;;;;;;5051968;28;20671;-68
2022/09/02 06:40:12;;;;;;;2.75;0.93;;;;;;;;;;5050764;28;20215;-67
2022/09/02 06:42:38;;;;;;;3.08;1.00;;;;;;;;;;5051812;28;20542;-67
2022/09/02 06:45:03;;;;;;;6.40;1.20;;;;;;;;;;5051072;28;20740;-67
2022/09/02 06:47:30;;;;;;;4.75;0.93;;;;;;;;;;5050976;28;20234;-67
2022/09/02 06:49:55;;;;;;;3.42;0.90;;;;;;;;;;5051636;28;20211;-67
2022/09/02 06:52:21;;;;;;;7.10;1.55;;;;;;;;;;5051166;28;20207;-67
2022/09/02 06:54:47;;;;;;;4.13;1.15;;;;;;;;;;5051018;28;20294;-67
2022/09/02 06:57:13;;;;;;;1.90;0.90;;;;;;;;;;5051139;28;20685;-68
2022/09/02 06:59:38;;;;;;;5.00;0.90;;;;;;;;;;5050827;28;20302;-68
2022/09/02 07:02:04;;;;;;;3.40;1.00;;;;;;;;;;5049718;28;20729;-66
2022/09/02 07:07:13;;;;;;;6.35;1.05;;;;;;;;;;5050214;28;20214;-67
2022/09/02 07:09:38;;;;;;;5.32;1.08;;;;;;;;;;5051262;28;20222;-67
2022/09/02 07:12:04;;;;;;;5.55;1.08;;;;;;;;;;5050890;28;20203;-67
2022/09/02 07:14:29;;;;;;;2.58;1.20;;;;;;;;;;5064364;28;20218;-67
2022/09/02 07:16:56;;;;;;;3.10;0.90;;;;;;;;;;5064852;28;20230;-67
2022/09/02 07:19:21;;;;;;;7.32;1.10;;;;;;;;;;5050566;28;20215;-67
2022/09/02 07:21:48;;;;;;;4.97;1.20;;;;;;;;;;5049153;28;20217;-67
2022/09/02 07:24:13;;;;;;;3.53;1.10;;;;;;;;;;5050654;28;20207;-67
2022/09/02 07:26:39;;;;;;;6.65;1.10;;;;;;;;;;5051120;28;20694;-67
2022/09/02 07:29:07;;;;;;;5.57;0.93;;;;;;;;;;5049532;28;20710;-67
2022/09/02 07:31:33;;;;;;;8.57;1.30;;;;;;;;;;5050977;28;20207;-67
2022/09/02 07:33:58;;;;;;;4.50;1.00;;;;;;;;;;5051015;28;20237;-68
2022/09/02 07:36:24;;;;;;;3.70;0.98;;;;;;;;;;5049476;28;20218;-68
2022/09/02 07:38:49;;;;;;;4.45;1.30;;;;;;;;;;5050859;28;20628;-68
2022/09/02 07:41:15;;;;;;;7.65;1.30;;;;;;;;;;5050287;28;20298;-67
2022/09/02 07:43:41;;;;;;;1.88;1.08;;;;;;;;;;5050064;28;20708;-68
2022/09/02 07:46:06;;;;;;;9.50;1.65;;;;;;;;;;5049862;28;20431;-67
2022/09/02 07:48:31;;;;;;;7.38;1.42;;;;;;;;;;5050515;28;20264;-67
2022/09/02 07:50:57;;;;;;;6.05;1.20;;;;;;;;;;5048546;28;20307;-67
2022/09/02 07:53:22;;;;;;;4.85;1.05;;;;;;;;;;5050235;28;20334;-68
2022/09/02 07:55:47;;;;;;;2.85;1.15;;;;;;;;;;5049798;28;20654;-68
2022/09/02 07:58:13;;;;;;;8.20;1.25;;;;;;;;;;5050092;28;20218;-67
2022/09/02 08:00:40;;;;;;;4.20;1.15;;;;;;;;;;5050243;28;20298;-68
2022/09/02 08:03:06;;;;;;;7.68;1.45;;;;;;;;;;5049460;28;20265;-67
2022/09/02 08:05:32;;;;;;;6.45;1.20;;;;;;;;;;5050318;28;20222;-67
2022/09/02 08:07:57;;;;;;;5.28;1.05;;;;;;;;;;5050396;28;20557;-68
2022/09/02 08:10:24;;;;;;;7.50;1.10;;;;;;;;;;5049063;28;20207;-68
2022/09/02 08:12:50;;;;;;;10.95;1.35;;;;;;;;;;5052113;28;20211;-67
2022/09/02 08:15:16;;;;;;;10.93;1.40;;;;;;;;;;5069800;28;20214;-67
2022/09/02 08:17:42;;;;;;;4.47;1.00;;;;;;;;;;5055405;28;20215;-68
2022/09/02 08:20:07;;;;;;;6.82;1.00;;;;;;;;;;5048609;28;20298;-67
2022/09/02 08:22:34;;;;;;;3.30;1.05;;;;;;;;;;5050089;28;20211;-68
2022/09/02 08:24:59;;;;;;;6.40;2.15;;;;;;;;;;5049516;28;20673;-68
2022/09/02 08:27:26;;;;;;;8.70;1.13;;;;;;;;;;5049806;28;20221;-68
2022/09/02 08:29:51;;;;;;;3.30;1.10;;;;;;;;;;5050132;28;20215;-68
2022/09/02 08:32:17;;;;;;;9.57;1.30;;;;;;;;;;5049034;28;20210;-67
2022/09/02 08:34:42;;;;;;;4.57;1.38;;;;;;;;;;5050293;28;20684;-68
2022/09/02 08:37:08;;;;;;;3.85;1.10;;;;;;;;;;5049547;28;20210;-68
2022/09/02 08:39:33;;;;;;;8.80;1.02;;;;;;;;;;5049617;28;20682;-68
2022/09/02 08:41:58;;;;;;;7.25;1.00;;;;;;;;;;5050076;28;20670;-68
2022/09/02 08:44:24;;;;;;;6.15;1.30;;;;;;;;;;5049693;28;20222;-68
2022/09/02 08:46:49;;;;;;;6.28;1.55;;;;;;;;;;5047554;28;20226;-68
2022/09/02 08:49:17;;;;;;;6.13;1.35;;;;;;;;;;5051636;28;20233;-67
2022/09/02 08:51:47;;;;;;;5.50;1.20;;;;;;;;;;5053755;28;20293;-68
2022/09/02 08:54:21;;;;;;;6.60;1.10;;;;;;;;;;5051501;28;20211;-67
2022/09/02 08:56:47;;;;;;;5.22;1.45;;;;;;;;;;5054007;28;20214;-67
2022/09/02 08:59:14;;;;;;;6.82;1.33;;;;;;;;;;5052719;28;20222;-67
2022/09/02 09:01:52;;;;;;;5.38;1.52;;;;;;;;;;5053634;28;20211;-66
2022/09/02 09:04:17;;;;;;;5.22;1.10;;;;;;;;;;5053233;28;20203;-66
2022/09/02 09:06:51;;;;;;;3.53;1.40;;;;;;;;;;5040981;28;20218;-66
2022/09/02 09:09:20;;;;;;;4.90;1.30;;;;;;;;;;5040065;28;20305;-66
2022/09/02 09:11:50;;;;;;;9.25;1.45;;;;;;;;;;5044560;28;20583;-67
2022/09/02 09:14:19;;;;;;;5.50;1.42;;;;;;;;;;5048346;28;20269;-67
2022/09/02 09:16:48;;;;;;;9.55;1.60;;;;;;;;;;5043447;28;20601;-68
2022/09/02 09:19:14;;;;;;;3.35;1.58;;;;;;;;;;5043987;28;20206;-70
2022/09/02 09:21:40;;;;;;;5.15;1.48;;;;;;;;;;5044433;28;20622;-66
2022/09/02 09:24:16;;;;;;;7.47;1.63;;;;;;;;;;5045411;28;20203;-65
2022/09/02 09:26:42;;;;;;;4.97;1.20;;;;;;;;;;5044127;28;20227;-66
2022/09/02 09:29:07;;;;;;;6.18;1.73;;;;;;;;;;5043113;28;20227;-64
2022/09/02 09:31:34;;;;;;;3.05;1.50;;;;;;;;;;5045422;28;20211;-63
2022/09/02 09:34:01;;;;;;;6.25;1.38;;;;;;;;;;5044030;28;20845;-63
2022/09/02 09:36:39;;;;;;;8.10;1.58;;;;;;;;;;5044169;28;20857;-63
2022/09/02 09:39:24;;;;;;;4.95;1.40;;;;;;;;;;5044904;28;20260;-63
2022/09/02 09:41:50;;;;;;;8.40;1.85;;;;;;;;;;5043356;28;20211;-63
2022/09/02 09:44:40;;;;;;;6.63;1.90;;;;;;;;;;5044952;28;20204;-63
2022/09/02 09:47:08;;;;;;;6.63;1.35;;;;;;;;;;5044248;28;20223;-63
2022/09/02 09:49:33;;;;;;;6.53;1.80;;;;;;;;;;5044069;28;20763;-63
2022/09/02 09:51:59;;;;;;;4.05;1.33;;;;;;;;;;5044713;28;20211;-63
2022/09/02 09:54:24;;;;;;;5.22;1.45;;;;;;;;;;5044509;28;20738;-63
2022/09/02 09:56:50;;;;;;;7.03;1.50;;;;;;;;;;5044986;28;20217;-63
2022/09/02 09:59:37;;;;;;;5.30;1.67;;;;;;;;;;5043412;28;20269;-63
2022/09/02 10:02:02;;;;;;;5.35;1.60;;;;;;;;;;5043359;28;20294;-62
2022/09/02 10:04:29;;;;;;;7.30;1.65;;;;;;;;;;5044193;28;20750;-64
2022/09/02 10:06:54;;;;;;;8.38;1.98;;;;;;;;;;5044995;28;20301;-65
2022/09/02 10:09:19;;;;;;;6.20;1.40;;;;;;;;;;5026527;28;20368;-65
2022/09/02 10:11:53;;;;;;;11.40;1.33;;;;;;;;;;5044436;28;20748;-65
2022/09/02 10:14:19;;;;;;;5.22;1.75;;;;;;;;;;5057973;28;20268;-65
2022/09/02 10:16:51;;;;;;;5.80;1.80;;;;;;;;;;5059051;28;20858;-65
2022/09/02 10:19:25;;;;;;;8.75;1.67;;;;;;;;;;5043828;28;20294;-65
2022/09/02 10:21:51;;;;;;;5.88;1.60;;;;;;;;;;5042842;28;20337;-65
2022/09/02 10:24:25;;;;;;;4.18;1.55;;;;;;;;;;5043600;28;20872;-65
2022/09/02 10:26:52;;;;;;;4.82;1.65;;;;;;;;;;5042715;28;20215;-65
2022/09/02 10:29:24;;;;;;;5.32;1.40;;;;;;;;;;5043904;28;20223;-64
2022/09/02 10:31:55;;;;;;;4.80;1.40;;;;;;;;;;5042372;28;20246;-65
2022/09/02 10:34:22;;;;;;;8.25;1.70;;;;;;;;;;5042639;28;20222;-68
2022/09/02 10:37:04;;;;;;;4.97;1.83;;;;;;;;;;5043911;28;20226;-68
2022/09/02 10:39:37;;;;;;;7.90;1.85;;;;;;;;;;5041832;28;20254;-68
2022/09/02 10:42:09;;;;;;;4.70;1.55;;;;;;;;;;5042490;28;20245;-68
2022/09/02 10:44:45;;;;;;;4.72;1.70;;;;;;;;;;5043236;28;20306;-67
2022/09/02 10:47:20;;;;;;;4.45;1.40;;;;;;;;;;5042570;28;20568;-68
2022/09/02 10:49:50;;;;;;;5.60;1.77;;;;;;;;;;5042248;28;20717;-68
2022/09/02 10:52:31;;;;;;;6.63;1.90;;;;;;;;;;5040886;28;20573;-68
2022/09/02 10:55:04;;;;;;;6.63;1.70;;;;;;;;;;5042563;28;20403;-68
2022/09/02 10:57:30;;;;;;;4.30;1.67;;;;;;;;;;5041812;28;20561;-68
2022/09/02 11:00:00;;;;;;;6.18;1.30;;;;;;;;;;5042999;28;20286;-68
2022/09/02 11:02:27;;;;;;;7.13;1.80;;;;;;;;;;5041881;28;20988;-68
2022/09/02 11:04:55;;;;;;;6.18;1.85;;;;;;;;;;5042051;28;20230;-64
2022/09/02 11:07:22;;;;;;;5.30;1.75;;;;;;;;;;5040955;28;22487;-65
2022/09/02 11:09:48;;;;;;;7.75;2.28;;;;;;;;;;5042478;28;20710;-64
2022/09/02 11:12:15;;;;;;;7.47;1.88;;;;;;;;;;5041660;28;20666;-65
2022/09/02 11:14:59;;;;;;;4.28;1.33;;;;;;;;;;5060072;28;20215;-65
2022/09/02 11:17:28;;;;;;;5.50;1.73;;;;;;;;;;5052243;28;20234;-64
2022/09/02 11:19:57;;;;;;;4.53;1.70;;;;;;;;;;5040811;28;20211;-64
2022/09/02 11:22:26;;;;;;;3.92;1.50;;;;;;;;;;5043238;28;20218;-65
2022/09/02 11:24:54;;;;;;;4.28;1.90;;;;;;;;;;5042287;28;20501;-65
2022/09/02 11:27:23;;;;;;;3.42;1.40;;;;;;;;;;5042144;28;20230;-64
2022/09/02 11:30:01;;;;;;;6.90;1.45;;;;;;;;;;5041584;28;20519;-65
2022/09/02 11:32:33;;;;;;;8.13;1.60;;;;;;;;;;5041662;28;20237;-65
2022/09/02 11:34:59;;;;;;;5.10;1.85;;;;;;;;;;5042061;28;20298;-65
2022/09/02 11:37:28;;;;;;;6.55;1.98;;;;;;;;;;5041362;28;20211;-65
2022/09/02 11:40:02;;;;;;;4.78;1.88;;;;;;;;;;5042821;28;20666;-65
2022/09/02 11:42:40;;;;;;;3.78;1.50;;;;;;;;;;5040512;28;20510;-65
2022/09/02 11:45:23;;;;;;;3.78;1.30;;;;;;;;;;5040907;28;20215;-65
2022/09/02 11:48:07;;;;;;;1.90;1.33;;;;;;;;;;5043146;28;20227;-65
2022/09/02 11:50:37;;;;;;;3.47;1.58;;;;;;;;;;5042141;28;20246;-64
2022/09/02 11:53:14;;;;;;;4.93;1.35;;;;;;;;;;5040797;28;20207;-65
2022/09/02 11:55:40;;;;;;;6.32;1.40;;;;;;;;;;5042037;28;20214;-65
2022/09/02 11:58:06;;;;;;;4.20;1.23;;;;;;;;;;5041190;28;20779;-65
2022/09/02 12:00:32;;;;;;;3.53;1.30;;;;;;;;;;5039611;28;20215;-65
2022/09/02 12:02:59;;;;;;;3.40;1.23;;;;;;;;;;5041945;28;20292;-65
2022/09/02 12:05:29;;;;;;;2.25;1.20;;;;;;;;;;5039175;28;20245;-65
2022/09/02 12:07:55;;;;;;;2.85;1.40;;;;;;;;;;5041492;28;20219;-66
2022/09/02 12:10:40;;;;;;;2.33;1.10;;;;;;;;;;5040141;28;20219;-66
2022/09/02 12:13:06;;;;;;;2.15;1.10;;;;;;;;;;5041923;28;20799;-66
2022/09/02 12:15:34;;;;;;;2.47;1.25;;;;;;;;;;5041782;28;20664;-67
2022/09/02 12:17:59;;;;;;;2.35;1.20;;;;;;;;;;5031808;28;20215;-66
2022/09/02 12:20:37;;;;;;;2.88;1.10;;;;;;;;;;5029398;28;20630;-67
2022/09/02 12:23:03;;;;;;;2.47;0.90;;;;;;;;;;5038793;28;20564;-65
2022/09/02 12:25:32;;;;;;;2.88;1.25;;;;;;;;;;5040840;28;20213;-66
2022/09/02 12:28:13;;;;;;;2.20;1.10;;;;;;;;;;5042926;28;20318;-66
2022/09/02 12:30:54;;;;;;;4.53;1.20;;;;;;;;;;5041785;28;20214;-65
2022/09/02 12:33:29;;;;;;;2.47;1.02;;;;;;;;;;5041660;28;20226;-66
2022/09/02 12:35:56;;;;;;;2.25;1.20;;;;;;;;;;5040524;28;20280;-66
2022/09/02 12:38:25;;;;;;;3.10;1.20;;;;;;;;;;5039641;28;20722;-66
2022/09/02 12:40:53;;;;;;;6.55;1.30;;;;;;;;;;5041553;28;20211;-65
2022/09/02 12:43:24;;;;;;;3.40;1.05;;;;;;;;;;5042023;28;20211;-66
2022/09/02 12:45:49;;;;;;;3.45;1.30;;;;;;;;;;5041026;28;20235;-66
2022/09/02 12:48:16;;;;;;;2.40;1.30;;;;;;;;;;5040714;28;20306;-65
2022/09/02 12:50:42;;;;;;;6.60;1.60;;;;;;;;;;5041791;28;20207;-66
2022/09/02 12:53:35;;;;;;;4.30;1.30;;;;;;;;;;5041742;28;20208;-66
2022/09/02 12:56:02;;;;;;;2.95;1.45;;;;;;;;;;5041647;28;20365;-66
2022/09/02 12:58:30;;;;;;;4.18;1.35;;;;;;;;;;5042169;28;20729;-66
2022/09/02 13:01:12;;;;;;;3.17;1.20;;;;;;;;;;5042681;28;20253;-65
2022/09/02 13:03:46;;;;;;;3.00;1.30;;;;;;;;;;5040790;28;20237;-66
2022/09/02 13:06:16;;;;;;;3.40;1.38;;;;;;;;;;5040600;28;20268;-65
2022/09/02 13:09:00;;;;;;;2.13;1.10;;;;;;;;;;5039170;28;20235;-66
2022/09/02 13:11:44;;;;;;;6.35;1.50;;;;;;;;;;5042133;28;20215;-66
2022/09/02 13:14:19;;;;;;;3.22;1.35;;;;;;;;;;5053438;28;20210;-66
2022/09/02 13:17:05;;;;;;;3.10;1.40;;;;;;;;;;5043459;28;20214;-65
2022/09/02 13:19:45;;;;;;;3.97;1.42;;;;;;;;;;5037143;28;20218;-65
2022/09/02 13:22:12;;;;;;;2.33;1.42;;;;;;;;;;5021983;28;20243;-65
2022/09/02 13:24:50;;;;;;;2.38;1.33;;;;;;;;;;5022094;28;20226;-65
2022/09/02 13:27:26;;;;;;;1.77;1.30;;;;;;;;;;5020977;28;20220;-66
2022/09/02 13:29:55;;;;;;;3.88;1.50;;;;;;;;;;5023777;28;20640;-66
2022/09/02 13:32:22;;;;;;;3.05;1.27;;;;;;;;;;5040152;28;20368;-66
2022/09/02 13:34:47;;;;;;;6.22;1.30;;;;;;;;;;5042949;28;20237;-67
2022/09/02 13:37:27;;;;;;;4.40;1.38;;;;;;;;;;5043356;28;20705;-67
2022/09/02 13:39:52;;;;;;;4.72;1.17;;;;;;;;;;5045180;28;20463;-66
2022/09/02 13:42:18;;;;;;;7.47;1.58;;;;;;;;;;5044124;28;20612;-65
2022/09/02 13:44:43;;;;;;;4.85;1.42;;;;;;;;;;5044078;28;20605;-66
2022/09/02 13:47:28;;;;;;;4.90;1.35;;;;;;;;;;5044670;28;20276;-66
2022/09/02 13:49:54;;;;;;;3.50;1.40;;;;;;;;;;5042320;28;20430;-66
2022/09/02 13:52:19;;;;;;;2.35;1.20;;;;;;;;;;5056525;28;20621;-65
2022/09/02 13:54:46;;;;;;;5.40;1.50;;;;;;;;;;5063704;28;20923;-65
2022/09/02 13:57:12;;;;;;;3.97;1.40;;;;;;;;;;5063792;28;20226;-65
2022/09/02 13:59:38;;;;;;;3.83;1.30;;;;;;;;;;5065551;28;20263;-65
2022/09/02 14:02:22;;;;;;;4.00;1.50;;;;;;;;;;5062856;28;20210;-65
2022/09/02 14:04:48;;;;;;;2.60;1.30;;;;;;;;;;5064491;28;20268;-65
2022/09/02 14:07:14;;;;;;;3.53;1.27;;;;;;;;;;5065280;28;20346;-66
2022/09/02 14:09:39;;;;;;;4.18;1.48;;;;;;;;;;5063280;28;20705;-66
2022/09/02 14:12:04;;;;;;;5.07;1.40;;;;;;;;;;5063751;28;20214;-65
2022/09/02 14:14:30;;;;;;;4.05;1.35;;;;;;;;;;5049640;28;20439;-66
2022/09/02 14:17:14;;;;;;;2.80;1.25;;;;;;;;;;5044553;28;20211;-65
2022/09/02 14:19:39;;;;;;;4.32;1.40;;;;;;;;;;5043829;28;20203;-65
2022/09/02 14:22:05;;;;;;;6.47;1.40;;;;;;;;;;5043522;28;20556;-65
2022/09/02 14:24:36;;;;;;;3.88;1.40;;;;;;;;;;5043495;28;20237;-66
2022/09/02 14:27:01;;;;;;;6.80;1.67;;;;;;;;;;5044128;28;20203;-65
2022/09/02 14:29:27;;;;;;;3.13;1.40;;;;;;;;;;5044490;28;20226;-65
2022/09/02 14:32:05;;;;;;;4.15;1.50;;;;;;;;;;5041944;28;20227;-65
2022/09/02 14:34:31;;;;;;;2.78;1.40;;;;;;;;;;5043856;28;20222;-65
2022/09/02 14:36:56;;;;;;;3.33;1.58;;;;;;;;;;5044027;28;20695;-65
2022/09/02 14:39:21;;;;;;;3.10;1.70;;;;;;;;;;5043910;28;20207;-65
2022/09/02 14:41:47;;;;;;;3.72;1.50;;;;;;;;;;5043893;28;20211;-65
2022/09/02 14:44:15;;;;;;;4.82;1.23;;;;;;;;;;5041043;28;20211;-65
2022/09/02 14:46:42;;;;;;;2.50;1.30;;;;;;;;;;5042146;28;20223;-69
2022/09/02 14:49:08;;;;;;;4.18;1.45;;;;;;;;;;5043171;28;20241;-72